createdAt,value
2023-01-06T00:00:15.592Z,56.852381
2023-01-06T00:05:16.164Z,56.685235
2023-01-06T00:10:18.135Z,56.553378
2023-01-06T00:15:16.660Z,56.057432
2023-01-06T00:20:16.464Z,55.664384
2023-01-06T00:25:16.197Z,55.631544
2023-01-06T00:30:15.870Z,56.233333
2023-01-06T00:35:16.288Z,55.782313
2023-01-06T00:40:15.776Z,55.480272
2023-01-06T00:45:16.535Z,55.431081
2023-01-06T00:50:16.373Z,55.034694
2023-01-06T00:55:21.171Z,55.066216
2023-01-06T01:00:16.603Z,55.593919
2023-01-06T01:05:16.211Z,56.370946
2023-01-06T01:10:16.529Z,57.346622
2023-01-06T01:15:16.314Z,57.608784
2023-01-06T01:20:16.281Z,57.572973
2023-01-06T01:25:15.646Z,57.014483
2023-01-06T01:30:16.506Z,57.011034
2023-01-06T01:35:16.261Z,57.421528
2023-01-06T01:40:16.016Z,58.114384
2023-01-06T01:45:16.309Z,60.540816
2023-01-06T01:50:17.522Z,61.246980
2023-01-06T01:55:15.709Z,61.238356
2023-01-06T02:00:16.749Z,61.912414
2023-01-06T02:05:15.979Z,62.696552
2023-01-06T02:10:16.221Z,63.113889
2023-01-06T02:15:16.409Z,63.586207
2023-01-06T02:20:16.152Z,64.098611
2023-01-06T02:25:16.469Z,64.561111
2023-01-06T02:30:16.682Z,65.637671
2023-01-06T02:35:16.875Z,67.040000
2023-01-06T02:40:16.028Z,68.299301
2023-01-06T02:45:15.554Z,68.940000
2023-01-06T02:50:16.064Z,68.706944
2023-01-06T02:55:16.488Z,68.927778
2023-01-06T03:00:15.678Z,69.919444
2023-01-06T03:05:15.661Z,71.297931
2023-01-06T03:10:15.769Z,72.002778
2023-01-06T03:15:16.172Z,71.898630
2023-01-06T03:20:16.150Z,71.920139
2023-01-06T03:25:16.403Z,72.371528
2023-01-06T03:30:15.618Z,72.489655
2023-01-06T03:35:16.314Z,72.025342
2023-01-06T03:40:15.756Z,71.174830
2023-01-06T03:45:16.112Z,70.489726
2023-01-06T03:50:16.909Z,70.257241
2023-01-06T03:55:17.352Z,70.037063
2023-01-06T04:00:16.834Z,70.046897
2023-01-06T04:05:16.428Z,69.722917
2023-01-06T04:10:16.329Z,69.837762
2023-01-06T04:15:15.834Z,70.725874
2023-01-06T04:20:16.510Z,71.866434
2023-01-06T04:25:16.400Z,72.439860
2023-01-06T04:30:18.618Z,72.737762
2023-01-06T04:35:16.941Z,73.944755
2023-01-06T04:40:16.012Z,75.132867
2023-01-06T04:45:15.933Z,77.281250
2023-01-06T04:50:16.246Z,79.130769
2023-01-06T04:55:16.232Z,80.584138
2023-01-06T05:00:15.845Z,80.913889
2023-01-06T05:05:16.864Z,81.481250
2023-01-06T05:10:16.745Z,81.789583
2023-01-06T05:15:16.336Z,81.897241
2023-01-06T05:20:15.674Z,81.878621
2023-01-06T05:25:16.877Z,81.736806
2023-01-06T05:30:16.625Z,81.098611
2023-01-06T05:35:15.646Z,80.531034
2023-01-06T05:40:16.601Z,80.047222
2023-01-06T05:45:16.511Z,79.232414
2023-01-06T05:50:16.067Z,77.895105
2023-01-06T05:55:16.011Z,77.050345
2023-01-06T06:00:17.367Z,76.848966
2023-01-06T06:05:21.906Z,76.549306
2023-01-06T06:10:16.686Z,76.473611
2023-01-06T06:15:16.091Z,76.377778
2023-01-06T06:20:16.202Z,76.031507
2023-01-06T06:25:15.875Z,75.943448
2023-01-06T06:30:17.321Z,75.810417
2023-01-06T06:35:16.188Z,75.484722
2023-01-06T06:40:17.958Z,75.543056
2023-01-06T06:45:15.563Z,75.582069
2023-01-06T06:50:17.150Z,75.717483
2023-01-06T06:55:16.070Z,75.737762
2023-01-06T07:00:16.200Z,75.721918
2023-01-06T07:05:15.487Z,75.501379
2023-01-06T07:10:16.521Z,75.227972
2023-01-06T07:15:15.653Z,75.331690
2023-01-06T07:20:15.551Z,74.997203
2023-01-06T07:25:16.638Z,74.686014
2023-01-06T07:30:15.942Z,74.429371
2023-01-06T07:35:15.565Z,74.311888
2023-01-06T07:40:15.895Z,74.471329
2023-01-06T07:45:15.847Z,74.813889
2023-01-06T07:50:16.439Z,74.983217
2023-01-06T07:55:17.387Z,75.561806
2023-01-06T08:00:16.059Z,75.792254
2023-01-06T08:05:16.145Z,75.842069
2023-01-06T08:10:15.864Z,76.058741
2023-01-06T08:15:17.301Z,76.163380
2023-01-06T08:20:17.770Z,76.185106
2023-01-06T08:25:17.547Z,76.082394
2023-01-06T08:30:17.543Z,76.280986
2023-01-06T08:35:15.659Z,76.669014
2023-01-06T08:40:16.358Z,76.782394
2023-01-06T08:45:16.785Z,76.539161
2023-01-06T08:50:16.146Z,76.477622
2023-01-06T08:55:18.270Z,76.417483
2023-01-06T09:00:17.045Z,76.015493
2023-01-06T09:05:16.184Z,75.788732
2023-01-06T09:10:15.702Z,75.600699
2023-01-06T09:15:15.892Z,75.674825
2023-01-06T09:20:16.205Z,75.781119
2023-01-06T09:25:16.108Z,75.634028
2023-01-06T09:30:16.207Z,75.654545
2023-01-06T09:35:16.306Z,75.552778
2023-01-06T09:40:15.973Z,75.394366
2023-01-06T09:45:15.854Z,75.596479
2023-01-06T09:50:16.834Z,75.681119
2023-01-06T09:55:17.623Z,75.645833
2023-01-06T10:00:18.943Z,75.325517
2023-01-06T10:05:20.759Z,75.252083
2023-01-06T10:10:17.293Z,75.310417
2023-01-06T10:15:16.679Z,75.010490
2023-01-06T10:20:15.750Z,75.443056
2023-01-06T10:25:15.969Z,75.448252
2023-01-06T10:30:16.565Z,77.158333
2023-01-06T10:35:16.110Z,79.234043
2023-01-06T10:40:15.993Z,80.622857
2023-01-06T10:45:16.798Z,81.382517
2023-01-06T10:50:16.789Z,81.881560
2023-01-06T10:55:16.038Z,81.805634
2023-01-06T11:00:16.055Z,81.488028
2023-01-06T11:05:16.820Z,81.785315
2023-01-06T11:10:15.871Z,81.757746
2023-01-06T11:15:17.695Z,80.947143
2023-01-06T11:20:16.387Z,80.079577
2023-01-06T11:25:16.728Z,79.464539
2023-01-06T11:30:15.636Z,78.708029
2023-01-06T11:35:16.692Z,78.412950
2023-01-06T11:40:16.322Z,78.481884
2023-01-06T11:45:16.109Z,78.747101
2023-01-06T11:50:16.824Z,79.396403
2023-01-06T11:55:15.837Z,79.639855
2023-01-06T12:00:16.813Z,79.640876
2023-01-06T12:05:16.772Z,79.647826
2023-01-06T12:10:21.621Z,79.568116
2023-01-06T12:15:17.709Z,79.386861
2023-01-06T12:20:16.237Z,78.797122
2023-01-06T12:25:16.178Z,78.466667
2023-01-06T12:30:16.903Z,78.454815
2023-01-06T12:35:17.588Z,78.500000
2023-01-06T12:40:16.119Z,78.425714
2023-01-06T12:45:15.710Z,78.232394
2023-01-06T12:50:16.233Z,78.208511
2023-01-06T12:55:16.037Z,78.015493
2023-01-06T13:00:15.975Z,77.865248
2023-01-06T13:05:15.957Z,77.717143
2023-01-06T13:10:16.104Z,77.638298
2023-01-06T13:15:16.366Z,77.624823
2023-01-06T13:20:16.689Z,77.336620
2023-01-06T13:25:15.988Z,77.528472
2023-01-06T13:30:17.525Z,77.561111
2023-01-06T13:35:20.962Z,77.584138
2023-01-06T13:40:16.210Z,77.341096
2023-01-06T13:45:16.339Z,77.426389
2023-01-06T13:50:16.236Z,77.690278
2023-01-06T13:55:17.015Z,78.782394
2023-01-06T14:00:15.856Z,78.695775
2023-01-06T14:05:16.836Z,78.272857
2023-01-06T14:10:16.098Z,78.104196
2023-01-06T14:15:16.619Z,78.198592
2023-01-06T14:20:16.041Z,78.004225
2023-01-06T14:25:15.955Z,77.755944
2023-01-06T14:30:16.308Z,78.016783
2023-01-06T14:35:16.057Z,77.832639
2023-01-06T14:40:15.813Z,78.595070
2023-01-06T14:45:17.952Z,78.755944
2023-01-06T14:50:16.678Z,78.602778
2023-01-06T14:55:16.863Z,78.051034
2023-01-06T15:00:15.699Z,77.613103
2023-01-06T15:05:21.290Z,78.206897
2023-01-06T15:10:15.768Z,78.499301
2023-01-06T15:15:16.597Z,79.093750
2023-01-06T15:20:20.704Z,79.613889
2023-01-06T15:25:16.286Z,79.257639
2023-01-06T15:30:15.963Z,78.681250
2023-01-06T15:35:16.679Z,79.052778
2023-01-06T15:40:16.108Z,78.904167
2023-01-06T15:45:17.819Z,78.527083
2023-01-06T15:50:16.436Z,78.816667
2023-01-06T15:55:15.897Z,79.612230
2023-01-06T16:00:16.565Z,79.806569
2023-01-06T16:05:16.712Z,80.531387
2023-01-06T16:10:16.087Z,80.768841
2023-01-06T16:15:16.542Z,81.023571
2023-01-06T16:20:16.076Z,80.720144
2023-01-06T16:25:16.403Z,80.720144
2023-01-06T16:30:16.488Z,80.560563
2023-01-06T16:35:16.998Z,79.170548
2023-01-06T16:40:15.929Z,77.978621
2023-01-06T16:45:16.372Z,77.376812
2023-01-06T16:50:21.724Z,76.949650
2023-01-06T16:55:16.667Z,76.079137
2023-01-06T17:00:16.154Z,75.568841
2023-01-06T17:05:17.131Z,75.425000
2023-01-06T17:10:16.689Z,76.344366
2023-01-06T17:15:17.751Z,76.874306
2023-01-06T17:20:15.808Z,76.490909
2023-01-06T17:25:16.122Z,75.862857
2023-01-06T17:30:16.319Z,75.958696
2023-01-06T17:35:16.060Z,75.998561
2023-01-06T17:40:15.967Z,76.067626
2023-01-06T17:45:17.319Z,76.291367
2023-01-06T17:50:15.962Z,76.307857
2023-01-06T17:55:15.944Z,76.367376
2023-01-06T18:00:16.090Z,75.889510
2023-01-06T18:05:16.581Z,75.357143
2023-01-06T18:10:16.407Z,75.625000
2023-01-06T18:15:16.064Z,75.122628
2023-01-06T18:20:16.414Z,74.364706
2023-01-06T18:25:16.707Z,73.744604
2023-01-06T18:30:16.331Z,72.694286
2023-01-06T18:35:16.547Z,71.914789
2023-01-06T18:40:15.747Z,71.206294
2023-01-06T18:45:15.819Z,70.749650
2023-01-06T18:50:15.877Z,69.280282
2023-01-06T18:55:16.493Z,67.687500
2023-01-06T19:00:16.390Z,67.734507
2023-01-06T19:05:16.018Z,69.341259
2023-01-06T19:10:16.102Z,70.877305
2023-01-06T19:15:15.859Z,70.357931
2023-01-06T19:20:15.673Z,70.420690
2023-01-06T19:25:15.878Z,70.210884
2023-01-06T19:30:15.858Z,70.229655
2023-01-06T19:35:17.178Z,71.441667
2023-01-06T19:40:15.939Z,72.337589
2023-01-06T19:45:15.723Z,74.797183
2023-01-06T19:50:15.972Z,74.241549
2023-01-06T19:55:16.063Z,74.831206
2023-01-06T20:00:15.524Z,75.873188
2023-01-06T20:05:15.775Z,75.495804
2023-01-06T20:10:16.322Z,74.626573
2023-01-06T20:15:15.756Z,74.184028
2023-01-06T20:20:16.023Z,72.800000
2023-01-06T20:25:16.101Z,72.001399
2023-01-06T20:30:15.598Z,71.938028
2023-01-06T20:35:16.548Z,71.117483
2023-01-06T20:40:16.395Z,70.953147
2023-01-06T20:45:15.851Z,69.816312
2023-01-06T20:50:15.583Z,69.228169
2023-01-06T20:55:15.529Z,68.905634
2023-01-06T21:00:15.965Z,68.711806
2023-01-06T21:05:17.222Z,68.470548
2023-01-06T21:10:16.006Z,67.863889
2023-01-06T21:15:15.825Z,67.437063
2023-01-06T21:20:16.369Z,67.930556
2023-01-06T21:25:16.150Z,68.325175
2023-01-06T21:30:15.539Z,69.040972
2023-01-06T21:35:15.766Z,70.461379
2023-01-06T21:40:15.636Z,72.169655
2023-01-06T21:45:16.435Z,73.118881
2023-01-06T21:50:15.749Z,73.836879
2023-01-06T21:55:16.881Z,74.047222
2023-01-06T22:00:15.985Z,74.231944
2023-01-06T22:05:16.172Z,73.706944
2023-01-06T22:10:15.597Z,73.580690
2023-01-06T22:15:15.952Z,73.552740
2023-01-06T22:20:16.941Z,74.055245
2023-01-06T22:25:16.031Z,74.222535
2023-01-06T22:30:16.512Z,74.583099
2023-01-06T22:35:16.695Z,74.042958
2023-01-06T22:40:15.640Z,74.426056
2023-01-06T22:45:15.802Z,74.842254
2023-01-06T22:50:16.297Z,75.104895
2023-01-06T22:55:16.106Z,75.433793
2023-01-06T23:00:16.022Z,75.508333
2023-01-06T23:05:15.833Z,75.367361
2023-01-06T23:10:15.671Z,76.113287
2023-01-06T23:15:16.647Z,76.713889
2023-01-06T23:20:16.267Z,76.269231
2023-01-06T23:25:15.932Z,76.661268
2023-01-06T23:30:16.266Z,77.304895
2023-01-06T23:35:16.043Z,76.498611
2023-01-06T23:40:16.751Z,76.323077
2023-01-06T23:45:16.090Z,76.211888
2023-01-06T23:50:16.263Z,76.055556
2023-01-06T23:55:15.795Z,76.481818
